Time;durP1;ratioP1;P1;durP2;ratioP2;P2;SDS_P1;SDS_P2;PMS_P1;PMS_P2;Temp;Humidity;BMP_temperature;BMP_pressure;BME280_temperature;BME280_humidity;BME280_pressure;Samples;Min_cycle;Max_cycle;Signal;HPM_P1;HPM_P2
2021/12/27 00:01:07;;;;;;;10.30;5.87;;;3.80;99.90;;;;;;5076668;28;20510;-76
2021/12/27 00:03:33;;;;;;;10.47;6.77;;;3.80;99.90;;;;;;5077145;28;20450;-76
2021/12/27 00:05:59;;;;;;;11.87;7.00;;;3.80;99.90;;;;;;5075656;28;20447;-75
2021/12/27 00:08:24;;;;;;;11.37;5.60;;;3.80;99.90;;;;;;5075700;28;20868;-76
2021/12/27 00:10:51;;;;;;;8.70;6.17;;;3.80;99.90;;;;;;5066626;28;20511;-76
2021/12/27 00:13:17;;;;;;;11.47;6.53;;;3.80;99.90;;;;;;5075080;28;20692;-74
2021/12/27 00:15:44;;;;;;;11.97;7.27;;;3.70;99.90;;;;;;5057487;28;20692;-76
2021/12/27 00:18:11;;;;;;;14.30;6.40;;;3.70;99.90;;;;;;5076035;28;20538;-75
2021/12/27 00:20:36;;;;;;;8.30;6.03;;;3.70;99.90;;;;;;5077795;28;20423;-76
2021/12/27 00:23:02;;;;;;;11.77;6.70;;;3.70;99.90;;;;;;5077304;28;20446;-75
2021/12/27 00:25:29;;;;;;;10.60;6.77;;;3.70;99.90;;;;;;5080002;28;20538;-76
2021/12/27 00:27:56;;;;;;;12.33;7.30;;;3.70;99.90;;;;;;5082864;28;20407;-74
2021/12/27 00:30:22;;;;;;;11.57;7.47;;;3.70;99.90;;;;;;5083522;28;20459;-76
2021/12/27 00:32:49;;;;;;;9.93;6.37;;;3.80;99.90;;;;;;5076304;28;20756;-75
2021/12/27 00:35:15;;;;;;;9.80;6.57;;;3.80;99.90;;;;;;5076281;28;20477;-75
2021/12/27 00:37:42;;;;;;;10.47;7.10;;;3.80;99.90;;;;;;5077148;28;20811;-75
2021/12/27 00:40:11;;;;;;;11.40;6.57;;;3.70;99.90;;;;;;5083584;28;20418;-76
2021/12/27 00:42:37;;;;;;;10.50;6.50;;;3.70;99.90;;;;;;5077522;28;20486;-76
2021/12/27 00:45:03;;;;;;;11.77;7.30;;;3.70;99.90;;;;;;5067112;28;20848;-73
2021/12/27 00:47:29;;;;;;;12.43;6.87;;;3.70;99.90;;;;;;5071352;28;20477;-74
2021/12/27 00:49:54;;;;;;;11.80;7.17;;;3.70;99.90;;;;;;5072823;28;20451;-74
2021/12/27 00:52:20;;;;;;;9.63;6.23;;;3.70;99.90;;;;;;5072360;28;20668;-75
2021/12/27 00:54:46;;;;;;;9.70;6.13;;;3.70;99.90;;;;;;5072213;28;20193;-76
2021/12/27 00:57:11;;;;;;;13.03;7.00;;;3.70;99.90;;;;;;5076482;28;20177;-76
2021/12/27 00:59:37;;;;;;;11.10;8.40;;;3.70;99.90;;;;;;5078814;28;20471;-76
2021/12/27 01:02:03;;;;;;;13.33;7.00;;;3.80;99.90;;;;;;5075360;28;20169;-76
2021/12/27 01:04:29;;;;;;;12.23;7.10;;;3.80;99.90;;;;;;5073014;28;20314;-76
2021/12/27 01:06:54;;;;;;;13.33;8.20;;;3.80;99.90;;;;;;5072490;28;20284;-76
2021/12/27 01:09:38;;;;;;;10.23;6.73;;;3.80;99.90;;;;;;5074076;28;20196;-75
2021/12/27 01:15:08;;;;;;;11.30;7.00;;;3.80;99.90;;;;;;5072521;28;20581;-77
2021/12/27 01:17:39;;;;;;;14.38;8.82;;;3.80;99.90;;;;;;5058490;28;20500;-78
2021/12/27 01:20:08;;;;;;;12.30;7.97;;;3.80;99.90;;;;;;5076606;28;20250;-79
2021/12/27 01:22:33;;;;;;;11.80;7.27;;;3.80;99.90;;;;;;5076687;28;20491;-79
2021/12/27 01:24:59;;;;;;;9.57;6.10;;;3.90;99.90;;;;;;5078223;28;20524;-80
2021/12/27 01:27:26;;;;;;;9.33;5.50;;;3.90;99.90;;;;;;5077373;28;20169;-79
2021/12/27 01:29:51;;;;;;;8.80;5.67;;;3.90;99.90;;;;;;5077300;28;20211;-79
2021/12/27 01:32:17;;;;;;;13.00;7.97;;;3.90;99.90;;;;;;5079144;28;20443;-79
2021/12/27 01:34:43;;;;;;;11.97;6.80;;;3.90;99.90;;;;;;5078631;28;20212;-78
2021/12/27 01:37:09;;;;;;;9.00;5.97;;;3.90;99.90;;;;;;5078901;28;20810;-78
2021/12/27 01:39:35;;;;;;;12.60;7.20;;;4.00;99.90;;;;;;5079762;28;20399;-78
2021/12/27 01:42:01;;;;;;;11.60;6.50;;;4.00;99.90;;;;;;5079116;28;20173;-78
2021/12/27 01:44:26;;;;;;;10.20;6.60;;;4.00;99.90;;;;;;5078808;28;20291;-79
2021/12/27 01:46:53;;;;;;;9.53;6.20;;;4.00;99.90;;;;;;5077816;28;20411;-78
2021/12/27 01:49:19;;;;;;;13.80;6.03;;;4.00;99.90;;;;;;5060651;28;20173;-79
2021/12/27 01:51:45;;;;;;;16.33;8.67;;;4.00;99.90;;;;;;5077523;28;20442;-80
2021/12/27 01:54:11;;;;;;;7.50;5.83;;;4.00;99.90;;;;;;5077164;28;20463;-79
2021/12/27 01:56:37;;;;;;;9.43;5.63;;;4.00;99.90;;;;;;5078167;28;20461;-78
2021/12/27 01:59:03;;;;;;;10.30;6.33;;;3.90;99.90;;;;;;5077490;28;20246;-79
2021/12/27 02:01:29;;;;;;;11.37;6.63;;;4.00;99.90;;;;;;5077334;28;20491;-78
2021/12/27 02:03:56;;;;;;;10.40;5.60;;;4.00;99.90;;;;;;5079583;28;20429;-78
2021/12/27 02:06:22;;;;;;;8.90;6.60;;;4.00;99.90;;;;;;5077925;28;20427;-78
2021/12/27 02:08:48;;;;;;;11.07;5.70;;;4.00;99.90;;;;;;5079977;28;20407;-78
2021/12/27 02:11:17;;;;;;;11.63;7.00;;;4.00;99.90;;;;;;5080650;28;20811;-79
2021/12/27 02:13:44;;;;;;;9.60;6.50;;;4.00;99.90;;;;;;5079346;28;20916;-79
2021/12/27 02:16:13;;;;;;;11.57;6.50;;;4.00;99.90;;;;;;5079880;28;20900;-78
2021/12/27 02:18:40;;;;;;;11.00;5.77;;;4.00;99.90;;;;;;5080508;28;20446;-77
2021/12/27 02:21:06;;;;;;;9.03;5.77;;;4.00;99.90;;;;;;5080481;28;20414;-78
2021/12/27 02:23:33;;;;;;;10.20;6.10;;;4.00;99.90;;;;;;5079780;28;20442;-76
2021/12/27 02:25:58;;;;;;;11.10;6.57;;;4.00;99.90;;;;;;5076883;28;20470;-79
2021/12/27 02:28:24;;;;;;;7.70;4.97;;;4.00;99.90;;;;;;5075950;28;20801;-78
2021/12/27 02:30:52;;;;;;;9.83;6.20;;;4.00;99.90;;;;;;5080086;28;20200;-77
2021/12/27 02:33:18;;;;;;;9.00;5.43;;;4.10;99.90;;;;;;5078357;28;20183;-77
2021/12/27 02:35:48;;;;;;;8.03;5.80;;;4.10;99.90;;;;;;5075229;28;20533;-78
2021/12/27 02:38:17;;;;;;;11.07;6.03;;;4.10;99.90;;;;;;5074365;28;20419;-79
2021/12/27 02:40:43;;;;;;;9.33;6.10;;;4.10;99.90;;;;;;5076234;28;20438;-78
2021/12/27 02:43:12;;;;;;;10.13;6.27;;;4.10;99.90;;;;;;5075913;28;20403;-79
2021/12/27 02:45:46;;;;;;;10.00;5.80;;;4.10;99.90;;;;;;5074021;28;20496;-77
2021/12/27 02:48:14;;;;;;;11.67;6.40;;;4.10;99.90;;;;;;5076463;28;20426;-76
2021/12/27 02:50:41;;;;;;;7.73;5.60;;;4.10;99.90;;;;;;5059467;28;20589;-78
2021/12/27 02:53:08;;;;;;;10.07;5.80;;;4.10;99.90;;;;;;5074116;28;20419;-79
2021/12/27 02:55:34;;;;;;;10.47;6.13;;;4.10;99.90;;;;;;5071319;28;20419;-78
2021/12/27 02:58:00;;;;;;;8.37;5.40;;;4.10;99.90;;;;;;5073052;28;20399;-77
2021/12/27 03:00:29;;;;;;;10.30;6.20;;;4.10;99.90;;;;;;5070457;28;20444;-77
2021/12/27 03:02:56;;;;;;;10.60;6.10;;;4.10;99.90;;;;;;5070551;28;20181;-77
2021/12/27 03:05:24;;;;;;;9.43;5.97;;;4.10;99.90;;;;;;5071843;28;20446;-77
2021/12/27 03:07:50;;;;;;;10.13;5.60;;;4.10;99.90;;;;;;5071259;28;20414;-77
2021/12/27 03:10:20;;;;;;;11.97;6.80;;;4.10;99.90;;;;;;5072352;28;21082;-78
2021/12/27 03:12:48;;;;;;;10.83;5.60;;;4.10;99.90;;;;;;5073702;28;20484;-78
2021/12/27 03:15:16;;;;;;;9.83;6.57;;;4.10;99.90;;;;;;5073467;28;20415;-78
2021/12/27 03:17:44;;;;;;;11.83;6.50;;;4.10;99.90;;;;;;5072418;28;20469;-78
2021/12/27 03:20:11;;;;;;;8.70;6.50;;;4.10;99.90;;;;;;5075817;28;20423;-78
2021/12/27 03:22:37;;;;;;;8.43;6.30;;;4.10;99.90;;;;;;5076212;28;20769;-78
2021/12/27 03:25:05;;;;;;;10.00;5.67;;;4.10;99.90;;;;;;5076888;28;20439;-79
2021/12/27 03:27:31;;;;;;;12.33;7.07;;;4.10;99.90;;;;;;5076847;28;20456;-77
2021/12/27 03:29:57;;;;;;;13.23;6.70;;;4.10;99.90;;;;;;5076241;28;20449;-78
2021/12/27 03:32:23;;;;;;;12.83;6.40;;;4.10;99.90;;;;;;5077123;28;20387;-78
2021/12/27 03:34:54;;;;;;;10.87;6.10;;;4.10;99.90;;;;;;5076651;28;20197;-77
2021/12/27 03:37:21;;;;;;;9.87;5.93;;;4.10;99.90;;;;;;5076900;28;20945;-78
2021/12/27 03:39:47;;;;;;;11.27;6.57;;;4.20;99.90;;;;;;5076358;28;20411;-78
2021/12/27 03:42:15;;;;;;;11.20;6.07;;;4.20;99.90;;;;;;5078208;28;20418;-78
2021/12/27 03:44:41;;;;;;;10.87;6.27;;;4.20;99.90;;;;;;5077900;28;20531;-78
2021/12/27 03:47:07;;;;;;;11.80;6.20;;;4.20;99.90;;;;;;5077737;28;20449;-78
2021/12/27 03:49:33;;;;;;;10.60;6.30;;;4.20;99.90;;;;;;5076600;28;20550;-78
2021/12/27 03:51:58;;;;;;;9.40;6.03;;;4.20;99.90;;;;;;5076308;28;20165;-77
2021/12/27 03:54:24;;;;;;;10.33;6.33;;;4.20;99.90;;;;;;5074355;28;20173;-77
2021/12/27 03:56:50;;;;;;;10.03;5.50;;;4.20;99.90;;;;;;5075287;28;20168;-77
2021/12/27 03:59:20;;;;;;;9.90;6.70;;;4.20;99.90;;;;;;5078619;28;20169;-77
2021/12/27 04:01:47;;;;;;;11.50;6.77;;;4.20;99.90;;;;;;5075443;28;20218;-77
2021/12/27 04:04:12;;;;;;;10.97;6.67;;;4.20;99.90;;;;;;5073455;28;20442;-78
2021/12/27 04:06:38;;;;;;;9.83;6.53;;;4.20;99.90;;;;;;5075415;28;20451;-77
2021/12/27 04:09:04;;;;;;;8.73;5.60;;;4.20;99.90;;;;;;5077260;28;20260;-77
2021/12/27 04:11:31;;;;;;;9.23;6.70;;;4.20;99.90;;;;;;5088446;28;20195;-77
2021/12/27 04:13:58;;;;;;;13.07;6.77;;;4.20;99.90;;;;;;5097406;28;20202;-76
2021/12/27 04:16:24;;;;;;;10.77;7.40;;;4.20;99.90;;;;;;5088362;28;20776;-77
2021/12/27 04:18:50;;;;;;;10.50;5.60;;;4.20;99.90;;;;;;5087836;28;20407;-77
2021/12/27 04:21:16;;;;;;;11.27;6.13;;;4.20;99.90;;;;;;5089857;28;20403;-78
2021/12/27 04:23:42;;;;;;;9.97;6.27;;;4.30;99.90;;;;;;5085807;28;20245;-78
2021/12/27 04:26:07;;;;;;;9.47;6.30;;;4.30;99.90;;;;;;5074951;28;20188;-77
2021/12/27 04:28:33;;;;;;;8.63;5.43;;;4.30;99.90;;;;;;5075071;28;20189;-78
2021/12/27 04:30:59;;;;;;;11.23;6.90;;;4.30;99.90;;;;;;5074847;28;20208;-77
2021/12/27 04:33:25;;;;;;;10.20;6.30;;;4.30;99.90;;;;;;5074960;28;20403;-78
2021/12/27 04:35:51;;;;;;;8.77;5.33;;;4.30;99.90;;;;;;5072494;28;20491;-77
2021/12/27 04:38:17;;;;;;;11.87;6.40;;;4.30;99.90;;;;;;5074780;28;20590;-77
2021/12/27 04:40:46;;;;;;;9.33;5.87;;;4.30;99.90;;;;;;5074916;28;20161;-78
2021/12/27 04:43:18;;;;;;;9.07;5.87;;;4.30;99.90;;;;;;5074530;28;20411;-77
2021/12/27 04:45:45;;;;;;;11.90;5.60;;;4.30;99.90;;;;;;5073858;28;20442;-78
2021/12/27 04:48:11;;;;;;;8.40;6.00;;;4.30;99.90;;;;;;5072988;28;20438;-77
2021/12/27 04:50:37;;;;;;;9.37;5.20;;;4.40;99.90;;;;;;5073855;28;20461;-77
2021/12/27 04:53:05;;;;;;;9.03;5.60;;;4.40;99.90;;;;;;5074731;28;20165;-77
2021/12/27 04:55:32;;;;;;;10.93;5.40;;;4.40;99.90;;;;;;5074907;28;20454;-77
2021/12/27 04:57:58;;;;;;;9.47;5.50;;;4.40;99.90;;;;;;5075855;28;20406;-78
2021/12/27 05:00:24;;;;;;;10.93;5.60;;;4.40;99.90;;;;;;5076178;28;20420;-77
2021/12/27 05:02:50;;;;;;;8.80;5.50;;;4.40;99.90;;;;;;5075155;28;20435;-77
2021/12/27 05:05:16;;;;;;;10.30;6.10;;;4.40;99.90;;;;;;5075317;28;20457;-77
2021/12/27 05:07:44;;;;;;;9.63;6.00;;;4.40;99.90;;;;;;5076309;28;20262;-76
2021/12/27 05:10:10;;;;;;;8.30;5.20;;;4.40;99.90;;;;;;5090219;28;20526;-77
2021/12/27 05:12:36;;;;;;;11.17;5.47;;;4.40;99.90;;;;;;5075723;28;20466;-78
2021/12/27 05:15:03;;;;;;;9.80;6.20;;;4.50;99.90;;;;;;5075663;28;20538;-78
2021/12/27 05:17:30;;;;;;;8.27;5.83;;;4.50;99.90;;;;;;5073718;28;20659;-78
2021/12/27 05:19:57;;;;;;;9.93;6.03;;;4.50;99.90;;;;;;5074689;28;20411;-78
2021/12/27 05:22:24;;;;;;;7.93;5.80;;;4.50;99.90;;;;;;5074199;28;20419;-78
2021/12/27 05:24:50;;;;;;;9.67;5.40;;;4.50;99.90;;;;;;5075660;28;20435;-78
2021/12/27 05:27:15;;;;;;;8.97;5.37;;;4.50;99.90;;;;;;5076458;28;20654;-77
2021/12/27 05:29:41;;;;;;;9.00;5.83;;;4.50;99.90;;;;;;5081308;28;20192;-77
2021/12/27 05:32:07;;;;;;;7.77;4.93;;;4.60;99.90;;;;;;5075566;28;20248;-78
2021/12/27 05:34:33;;;;;;;9.10;5.70;;;4.50;99.90;;;;;;5075627;28;20193;-76
2021/12/27 05:36:58;;;;;;;10.03;5.97;;;4.60;99.90;;;;;;5061668;28;20414;-77
2021/12/27 05:39:25;;;;;;;9.70;5.90;;;4.60;99.90;;;;;;5079170;28;20152;-78
2021/12/27 05:41:51;;;;;;;8.23;5.40;;;4.60;99.90;;;;;;5053038;28;20178;-77
2021/12/27 05:44:18;;;;;;;9.70;5.33;;;4.60;99.90;;;;;;5054436;28;20426;-78
2021/12/27 05:46:44;;;;;;;8.30;5.80;;;4.60;99.90;;;;;;5054652;28;20672;-78
2021/12/27 05:49:10;;;;;;;8.90;5.93;;;4.60;99.90;;;;;;5054935;28;20416;-78
2021/12/27 05:51:38;;;;;;;9.87;5.87;;;4.60;99.90;;;;;;5053756;28;20481;-78
2021/12/27 05:54:04;;;;;;;10.70;6.70;;;4.60;99.90;;;;;;5055291;28;20417;-78
2021/12/27 05:56:30;;;;;;;13.90;6.07;;;4.70;99.90;;;;;;5055115;28;20474;-77
2021/12/27 05:58:56;;;;;;;11.30;5.80;;;4.70;99.90;;;;;;5040967;28;20416;-77
2021/12/27 06:01:22;;;;;;;7.40;5.50;;;4.70;99.90;;;;;;5061135;28;20162;-77
2021/12/27 06:03:47;;;;;;;11.90;6.10;;;4.70;99.90;;;;;;5060257;28;20166;-76
2021/12/27 06:06:15;;;;;;;9.47;6.20;;;4.70;99.90;;;;;;5074431;28;20185;-77
2021/12/27 06:08:41;;;;;;;10.93;5.10;;;4.70;99.90;;;;;;5073919;28;20197;-78
2021/12/27 06:11:07;;;;;;;8.20;4.87;;;4.70;99.90;;;;;;5073921;28;20512;-77
2021/12/27 06:13:32;;;;;;;10.87;5.50;;;4.70;99.90;;;;;;5074156;28;20463;-77
2021/12/27 06:15:58;;;;;;;7.83;5.40;;;4.70;99.90;;;;;;5071871;28;20200;-77
2021/12/27 06:18:24;;;;;;;7.60;4.80;;;4.70;99.90;;;;;;5072552;28;20238;-77
2021/12/27 06:20:50;;;;;;;11.10;5.30;;;4.80;99.90;;;;;;5072250;28;20161;-77
2021/12/27 06:23:16;;;;;;;7.30;4.67;;;4.80;99.90;;;;;;5055434;28;20579;-78
2021/12/27 06:25:43;;;;;;;11.30;4.93;;;4.80;99.90;;;;;;5073323;28;20427;-78
2021/12/27 06:28:10;;;;;;;10.40;5.50;;;4.80;99.90;;;;;;5073982;28;20861;-77
2021/12/27 06:30:36;;;;;;;7.87;5.13;;;4.80;99.90;;;;;;5055975;28;20451;-78
2021/12/27 06:33:01;;;;;;;15.37;5.50;;;4.80;99.90;;;;;;5055324;28;20418;-78
2021/12/27 06:35:27;;;;;;;8.57;5.60;;;4.80;99.90;;;;;;5074770;28;20181;-78
2021/12/27 06:37:53;;;;;;;11.57;6.07;;;4.80;99.90;;;;;;5071262;28;20191;-78
2021/12/27 06:40:19;;;;;;;7.27;5.20;;;4.80;99.90;;;;;;5073619;28;20168;-79
2021/12/27 06:42:45;;;;;;;7.90;4.97;;;4.80;99.90;;;;;;5072586;28;20203;-78
2021/12/27 06:45:11;;;;;;;8.83;4.93;;;4.80;99.90;;;;;;5072261;28;20704;-78
2021/12/27 06:47:37;;;;;;;9.37;4.63;;;4.80;99.90;;;;;;5072966;28;20423;-78
2021/12/27 06:50:04;;;;;;;7.20;5.10;;;4.80;99.90;;;;;;5072669;28;20447;-79
2021/12/27 06:52:30;;;;;;;6.83;5.43;;;4.80;99.90;;;;;;5073988;28;20153;-78
2021/12/27 06:54:55;;;;;;;9.70;5.60;;;4.80;99.90;;;;;;5078245;28;20434;-77
2021/12/27 06:57:21;;;;;;;8.47;4.83;;;4.80;99.90;;;;;;5058353;28;20173;-78
2021/12/27 06:59:47;;;;;;;11.93;5.73;;;4.80;99.90;;;;;;5077232;28;20180;-78
2021/12/27 07:02:12;;;;;;;8.93;5.50;;;4.80;99.90;;;;;;5077899;28;20214;-76
2021/12/27 07:04:38;;;;;;;7.70;5.00;;;4.80;99.90;;;;;;5078886;28;20205;-77
2021/12/27 07:07:04;;;;;;;8.10;6.10;;;4.80;99.90;;;;;;5075970;28;20169;-78
2021/12/27 07:09:30;;;;;;;8.30;4.87;;;4.80;99.90;;;;;;5077586;28;20170;-77
2021/12/27 07:11:56;;;;;;;9.97;6.43;;;4.80;99.90;;;;;;5079730;28;20619;-76
2021/12/27 07:14:21;;;;;;;8.73;5.37;;;4.80;99.90;;;;;;5081609;28;20426;-78
2021/12/27 07:16:47;;;;;;;8.73;6.30;;;4.80;99.90;;;;;;5082845;28;20157;-78
2021/12/27 07:19:13;;;;;;;9.00;5.63;;;4.80;99.90;;;;;;5083783;28;20165;-78
2021/12/27 07:21:39;;;;;;;11.23;5.57;;;4.80;99.90;;;;;;5078668;28;20215;-78
2021/12/27 07:24:05;;;;;;;8.70;5.40;;;4.80;99.90;;;;;;5078845;28;20186;-80
2021/12/27 07:26:30;;;;;;;8.40;4.90;;;4.90;99.90;;;;;;5079689;28;20491;-78
2021/12/27 07:28:56;;;;;;;7.43;5.00;;;4.80;99.90;;;;;;5078629;28;20399;-78
2021/12/27 07:31:22;;;;;;;8.10;4.80;;;4.90;99.90;;;;;;5079241;28;20268;-78
2021/12/27 07:33:48;;;;;;;11.10;5.73;;;4.80;99.90;;;;;;5086425;28;20494;-77
2021/12/27 07:36:14;;;;;;;7.57;4.40;;;4.80;99.90;;;;;;5082423;28;20431;-77
2021/12/27 07:38:41;;;;;;;15.43;6.33;;;4.70;99.90;;;;;;5080201;28;20244;-77
2021/12/27 07:41:07;;;;;;;7.87;4.87;;;4.60;99.90;;;;;;5080062;28;20165;-77
2021/12/27 07:43:33;;;;;;;11.67;5.47;;;4.60;99.90;;;;;;5080724;28;20450;-77
2021/12/27 07:45:58;;;;;;;9.13;5.93;;;4.50;99.90;;;;;;5079112;28;20219;-78
2021/12/27 07:48:24;;;;;;;10.00;6.33;;;4.50;99.90;;;;;;5075311;28;20157;-75
2021/12/27 07:50:50;;;;;;;10.43;6.07;;;4.50;99.90;;;;;;5074072;28;20677;-75
2021/12/27 07:53:16;;;;;;;10.00;7.10;;;4.50;99.90;;;;;;5074796;28;20232;-76
2021/12/27 07:55:42;;;;;;;13.27;5.17;;;4.50;99.90;;;;;;5074681;28;20189;-75
2021/12/27 07:58:08;;;;;;;9.93;5.67;;;4.50;99.90;;;;;;5075854;28;20168;-75
2021/12/27 08:00:37;;;;;;;11.40;6.30;;;4.50;99.90;;;;;;5076253;28;20484;-75
2021/12/27 08:03:09;;;;;;;12.23;5.70;;;4.50;99.90;;;;;;5077048;28;20512;-75
2021/12/27 08:05:37;;;;;;;11.13;5.87;;;4.50;99.90;;;;;;5076924;28;20438;-76
2021/12/27 08:08:03;;;;;;;10.80;5.73;;;4.50;99.90;;;;;;5078102;28;20604;-75
2021/12/27 08:10:30;;;;;;;6.83;4.83;;;4.60;99.90;;;;;;5077654;28;20204;-75
2021/12/27 08:12:56;;;;;;;8.10;5.67;;;4.60;99.90;;;;;;5077023;28;20454;-76
2021/12/27 08:15:22;;;;;;;11.30;5.07;;;4.60;99.90;;;;;;5076874;28;20431;-75
2021/12/27 08:17:53;;;;;;;9.50;5.33;;;4.70;99.90;;;;;;5079577;28;20248;-75
2021/12/27 08:20:19;;;;;;;7.10;4.93;;;4.70;99.90;;;;;;5061146;28;20563;-76
2021/12/27 08:22:45;;;;;;;9.57;5.20;;;4.80;99.90;;;;;;5069948;28;20467;-75
2021/12/27 08:25:11;;;;;;;9.47;5.77;;;4.80;99.90;;;;;;5058156;28;20448;-74
2021/12/27 08:27:39;;;;;;;11.03;6.07;;;4.80;99.90;;;;;;5062268;28;20435;-72
2021/12/27 08:30:06;;;;;;;8.30;5.07;;;4.90;99.90;;;;;;5063495;28;20193;-76
2021/12/27 08:32:39;;;;;;;7.97;5.90;;;4.90;99.90;;;;;;5078618;28;20418;-74
2021/12/27 08:35:09;;;;;;;7.93;5.37;;;5.00;99.90;;;;;;5078621;28;20805;-74
2021/12/27 08:37:35;;;;;;;8.37;5.80;;;5.00;99.90;;;;;;5076965;28;20412;-75
2021/12/27 08:40:01;;;;;;;8.33;4.80;;;5.10;99.90;;;;;;5077919;28;20435;-77
2021/12/27 08:42:27;;;;;;;9.87;6.10;;;5.20;99.90;;;;;;5079239;28;20407;-75
2021/12/27 08:44:58;;;;;;;8.63;5.50;;;5.20;99.90;;;;;;5061630;28;20189;-75
2021/12/27 08:47:27;;;;;;;10.00;5.47;;;5.20;99.90;;;;;;5075693;28;20928;-75
2021/12/27 08:49:52;;;;;;;8.97;5.87;;;5.30;99.90;;;;;;5077716;28;20455;-75
2021/12/27 08:52:18;;;;;;;11.53;5.90;;;5.30;99.90;;;;;;5078735;28;20399;-76
2021/12/27 08:54:44;;;;;;;8.03;5.47;;;5.40;99.90;;;;;;5076781;28;20193;-76
2021/12/27 08:57:17;;;;;;;8.80;5.40;;;5.40;99.90;;;;;;5077294;28;20268;-75
2021/12/27 09:00:14;;;;;;;10.40;5.50;;;5.40;99.90;;;;;;5078428;28;20263;-74
2021/12/27 09:02:40;;;;;;;9.63;5.63;;;5.50;99.90;;;;;;5065719;28;20428;-74
2021/12/27 09:05:09;;;;;;;9.40;5.60;;;5.50;99.90;;;;;;5076622;28;20573;-76
2021/12/27 09:07:35;;;;;;;12.93;5.30;;;5.50;99.90;;;;;;5077866;28;20439;-76
2021/12/27 09:10:01;;;;;;;46.63;25.93;;;5.50;99.90;;;;;;5060658;28;20451;-75
2021/12/27 09:12:27;;;;;;;12.23;6.20;;;5.60;99.90;;;;;;5079848;28;20176;-74
2021/12/27 09:14:53;;;;;;;9.40;6.00;;;5.60;99.90;;;;;;5075083;28;20443;-75
2021/12/27 09:17:19;;;;;;;10.37;5.87;;;5.70;99.90;;;;;;5075864;28;20411;-75
2021/12/27 09:19:44;;;;;;;9.57;5.93;;;5.70;99.90;;;;;;5075702;28;20322;-74
2021/12/27 09:22:13;;;;;;;9.70;5.13;;;5.80;99.90;;;;;;5076465;28;20562;-75
2021/12/27 09:24:39;;;;;;;9.30;5.10;;;5.80;99.90;;;;;;5076894;28;20201;-74
2021/12/27 09:27:05;;;;;;;10.10;5.57;;;5.90;99.90;;;;;;5076307;28;20498;-76
2021/12/27 09:29:31;;;;;;;9.83;5.70;;;5.90;99.90;;;;;;5074578;28;20462;-76
2021/12/27 09:31:57;;;;;;;10.03;6.70;;;5.90;99.90;;;;;;5058532;28;20179;-76
2021/12/27 09:34:25;;;;;;;9.40;5.83;;;5.90;99.90;;;;;;5078210;28;20431;-74
2021/12/27 09:36:51;;;;;;;9.20;6.20;;;5.90;99.90;;;;;;5072216;28;20169;-76
2021/12/27 09:39:17;;;;;;;12.50;7.07;;;5.90;99.90;;;;;;5081244;28;20443;-75
2021/12/27 09:41:43;;;;;;;7.20;4.77;;;5.90;99.90;;;;;;5059831;28;20250;-74
2021/12/27 09:44:09;;;;;;;7.33;5.40;;;6.00;99.90;;;;;;5075570;28;20455;-74
2021/12/27 09:46:35;;;;;;;11.70;6.23;;;6.00;99.90;;;;;;5076525;28;20989;-76
2021/12/27 09:49:10;;;;;;;14.50;6.33;;;6.10;99.90;;;;;;5078992;28;20466;-77
2021/12/27 09:51:37;;;;;;;10.30;5.57;;;6.10;99.90;;;;;;5084788;28;20218;-74
2021/12/27 09:54:07;;;;;;;10.87;6.50;;;6.10;99.90;;;;;;5076793;28;20505;-75
2021/12/27 09:56:33;;;;;;;10.37;5.50;;;6.10;99.90;;;;;;5077465;28;20410;-75
2021/12/27 09:59:03;;;;;;;14.03;6.37;;;6.20;99.90;;;;;;5075951;28;20415;-75
2021/12/27 10:01:29;;;;;;;8.73;5.77;;;6.20;99.90;;;;;;5071891;28;20420;-75
2021/12/27 10:04:00;;;;;;;13.60;6.80;;;6.30;99.90;;;;;;5066712;28;20431;-75
2021/12/27 10:06:28;;;;;;;10.73;5.43;;;6.40;99.90;;;;;;5063999;28;20181;-75
2021/12/27 10:08:56;;;;;;;11.33;5.53;;;6.50;99.90;;;;;;5066169;28;20404;-75
2021/12/27 10:11:42;;;;;;;8.73;5.00;;;6.70;99.90;;;;;;5070933;28;20947;-75
2021/12/27 10:14:13;;;;;;;7.97;5.20;;;6.80;99.90;;;;;;5080866;28;20774;-75
2021/12/27 10:16:50;;;;;;;8.40;4.63;;;6.90;99.90;;;;;;5066218;28;20649;-75
2021/12/27 10:19:23;;;;;;;7.97;5.23;;;7.00;99.90;;;;;;5066284;28;20448;-76
2021/12/27 10:21:55;;;;;;;8.00;5.43;;;7.10;99.90;;;;;;5045156;28;21226;-75
2021/12/27 10:24:27;;;;;;;7.60;4.80;;;7.30;99.90;;;;;;5060442;28;20420;-76
2021/12/27 10:26:55;;;;;;;5.67;4.17;;;7.60;99.90;;;;;;5066082;28;20729;-74
2021/12/27 10:29:28;;;;;;;9.83;4.57;;;8.00;99.10;;;;;;5061135;28;20508;-76
2021/12/27 10:32:05;;;;;;;5.93;4.90;;;8.20;98.10;;;;;;5063123;28;20870;-74
2021/12/27 10:34:38;;;;;;;7.53;4.80;;;8.30;97.30;;;;;;5068393;28;20449;-75
2021/12/27 10:37:25;;;;;;;6.03;4.50;;;8.20;96.80;;;;;;5064232;28;20796;-74
2021/12/27 10:40:12;;;;;;;4.60;3.40;;;8.30;97.40;;;;;;5061743;28;20427;-73
2021/12/27 10:42:47;;;;;;;6.30;4.40;;;8.20;96.80;;;;;;5064254;28;20431;-75
2021/12/27 10:45:19;;;;;;;8.83;4.37;;;8.00;97.40;;;;;;5060997;28;20422;-75
2021/12/27 10:47:51;;;;;;;6.47;4.00;;;8.00;97.20;;;;;;5072655;28;20419;-75
2021/12/27 10:50:30;;;;;;;9.00;6.00;;;7.90;97.30;;;;;;5047670;28;20547;-74
2021/12/27 10:53:06;;;;;;;5.43;4.00;;;7.80;97.60;;;;;;5065867;28;20419;-73
2021/12/27 10:55:42;;;;;;;10.00;4.20;;;7.70;97.80;;;;;;5061242;28;20428;-74
2021/12/27 10:58:19;;;;;;;11.80;4.77;;;7.70;97.80;;;;;;5060638;28;20696;-75
2021/12/27 11:01:01;;;;;;;7.60;4.67;;;7.70;98.30;;;;;;5061551;28;20419;-74
2021/12/27 11:03:39;;;;;;;6.50;5.43;;;7.70;98.00;;;;;;5060662;28;20412;-74
2021/12/27 11:06:08;;;;;;;7.13;5.53;;;7.80;98.60;;;;;;5063807;28;20466;-73
2021/12/27 11:08:36;;;;;;;6.97;4.53;;;7.80;98.50;;;;;;5062032;28;20408;-74
2021/12/27 11:11:03;;;;;;;6.90;4.20;;;7.90;98.10;;;;;;5060219;28;20500;-74
2021/12/27 11:13:31;;;;;;;7.40;4.77;;;7.80;97.70;;;;;;5061784;28;20476;-74
2021/12/27 11:15:57;;;;;;;5.77;4.33;;;7.70;98.00;;;;;;5062176;28;20559;-75
2021/12/27 11:18:22;;;;;;;7.73;4.50;;;7.60;98.30;;;;;;5059780;28;20797;-75
2021/12/27 11:21:16;;;;;;;19.37;11.70;;;7.50;98.70;;;;;;5067120;28;20554;-75
2021/12/27 11:23:48;;;;;;;7.90;4.90;;;7.50;99.20;;;;;;5068066;28;20658;-74
2021/12/27 11:26:21;;;;;;;6.10;4.30;;;7.50;99.10;;;;;;5069308;28;20435;-74
2021/12/27 11:28:47;;;;;;;12.67;5.60;;;7.50;99.10;;;;;;5070371;28;20877;-74
2021/12/27 11:31:12;;;;;;;9.27;4.60;;;7.50;99.10;;;;;;5071043;28;20480;-74
2021/12/27 11:33:55;;;;;;;6.80;4.50;;;7.50;99.40;;;;;;5070852;28;20252;-75
2021/12/27 11:36:23;;;;;;;6.57;4.00;;;7.50;99.60;;;;;;5071283;28;20181;-75
2021/12/27 11:38:49;;;;;;;6.90;4.40;;;7.50;99.60;;;;;;5072690;28;20469;-73
2021/12/27 11:41:24;;;;;;;8.10;4.80;;;7.50;99.50;;;;;;5074341;28;20435;-74
2021/12/27 11:43:55;;;;;;;6.03;4.20;;;7.50;99.50;;;;;;5075115;28;20676;-74
2021/12/27 11:46:23;;;;;;;7.17;4.30;;;7.60;99.70;;;;;;5073595;28;20483;-74
2021/12/27 11:48:52;;;;;;;6.70;5.10;;;7.60;99.70;;;;;;5075616;28;20423;-74
2021/12/27 11:51:39;;;;;;;5.07;3.60;;;7.70;99.80;;;;;;5076015;28;20462;-74
2021/12/27 11:54:27;;;;;;;5.50;3.73;;;7.80;99.40;;;;;;5075527;28;20484;-74
2021/12/27 11:56:53;;;;;;;5.63;3.70;;;7.90;99.20;;;;;;5076500;28;20407;-74
2021/12/27 11:59:22;;;;;;;5.87;4.10;;;7.90;98.40;;;;;;5079577;28;20431;-75
2021/12/27 12:01:50;;;;;;;5.20;3.57;;;7.90;98.40;;;;;;5081237;28;20419;-73
2021/12/27 12:04:40;;;;;;;6.40;4.47;;;7.90;98.40;;;;;;5082088;28;20466;-72
2021/12/27 12:07:07;;;;;;;8.00;4.50;;;7.90;98.70;;;;;;5065125;28;20450;-74
2021/12/27 12:09:46;;;;;;;6.00;3.93;;;7.90;99.00;;;;;;5079227;28;20493;-75
2021/12/27 12:12:14;;;;;;;6.60;3.70;;;7.90;98.70;;;;;;5066636;28;20443;-74
2021/12/27 12:14:41;;;;;;;4.10;3.30;;;7.90;98.60;;;;;;5072523;28;20447;-73
2021/12/27 12:17:15;;;;;;;6.83;4.97;;;8.00;98.70;;;;;;5075018;28;20424;-73
2021/12/27 12:19:49;;;;;;;4.43;3.43;;;8.00;98.60;;;;;;5074825;28;20464;-74
2021/12/27 12:22:44;;;;;;;4.07;3.43;;;8.00;98.40;;;;;;5076175;28;20416;-73
2021/12/27 12:25:12;;;;;;;5.23;3.80;;;8.10;98.40;;;;;;5056328;28;20427;-74
2021/12/27 12:27:51;;;;;;;4.47;3.30;;;8.10;98.50;;;;;;5075083;28;20519;-74
2021/12/27 12:30:17;;;;;;;6.03;3.77;;;8.10;98.40;;;;;;5073746;28;20457;-73
2021/12/27 12:33:01;;;;;;;4.90;3.90;;;8.10;98.20;;;;;;5071606;28;20407;-74
2021/12/27 12:35:43;;;;;;;4.47;3.50;;;8.20;98.40;;;;;;5072912;28;20205;-75
2021/12/27 12:38:38;;;;;;;4.77;3.10;;;8.20;98.20;;;;;;5069297;28;20438;-75
2021/12/27 12:41:18;;;;;;;6.77;4.10;;;8.30;98.20;;;;;;5068632;28;20441;-74
2021/12/27 12:43:57;;;;;;;3.83;3.07;;;8.20;98.10;;;;;;5074823;28;20445;-74
2021/12/27 12:46:27;;;;;;;4.20;3.30;;;8.20;97.90;;;;;;5074280;28;20427;-74
2021/12/27 12:49:13;;;;;;;5.30;3.43;;;8.20;98.20;;;;;;5056583;28;20442;-74
2021/12/27 12:51:47;;;;;;;5.40;3.27;;;8.10;98.20;;;;;;5075122;28;20840;-72
2021/12/27 12:54:25;;;;;;;8.03;3.67;;;8.10;98.30;;;;;;5073776;28;20447;-74
2021/12/27 12:57:17;;;;;;;5.90;3.50;;;8.10;98.80;;;;;;5074077;28;20730;-73
2021/12/27 12:59:52;;;;;;;5.60;3.50;;;8.10;98.70;;;;;;5074975;28;20418;-74
2021/12/27 13:02:26;;;;;;;4.53;3.00;;;8.10;98.70;;;;;;5065732;28;20423;-74